Terminal Aerodrome Forecast
Issued by NWS Charleston, WV

Current Version | Previous Version | Graphics & Text | Print | Product List | Glossary On
Versions: 1 2 3 4 5 6 7 8 9 10 11 12 13 14 15 16 17 18 19 20 21 22 23 24
492
FTUS41 KRLX 272333
TAFHTS
TAF
KHTS 272333Z 2800/2824 VRB03KT P6SM +SHRA VCTS BKN035CB
      TEMPO 2800/2802 3SM +SHRA BKN025
     FM280200 VRB03KT 6SM SHRA BR BKN040
     FM280700 00000KT 5SM +SHRA BR VCTS BKN030CB
     FM281300 VRB03KT P6SM BKN025
     FM281800 24006KT P6SM VCTS BKN035CB=

USA.gov is the U.S. government's official web portal to all federal, state and local government web resources and services.